Terminal Aerodrome Forecast
Issued by NWS Upton, NY

Home | Current Version | Previous Version | Text Only | Print | Product List | Glossary On
Versions: 1 2 3 4 5 6 7 8 9 10 11 12 13 14 15 16 17 18 19 20 21 22 23 24 25 26 27 28 29 30 31 32
000
FTUS41 KOKX 011727
TAFEWR
TAF
KEWR 011727Z 0118/0224 25013G20KT P6SM FEW030 BKN050
     FM012000 25016G24KT P6SM BKN050
     FM020000 27010KT P6SM BKN050
     FM020500 VRB04KT P6SM SCT050 BKN250
     FM021200 36005KT P6SM SCT050 BKN250
     FM021800 15007KT P6SM SCT050 BKN250=

USA.gov is the U.S. government's official web portal to all federal, state and local government web resources and services.